sensor_id;sensor_type;location;lat;lon;timestamp;pressure;altitude;pressure_sealevel;temperature;humidity
54666;BME280;40566;50.006;36.180;2022-10-16T00:04:30;101130.47;;;3.55;62.08
54666;BME280;40566;50.006;36.180;2022-10-16T00:09:31;101138.16;;;3.55;62.10
54666;BME280;40566;50.006;36.180;2022-10-16T00:14:31;101139.81;;;3.55;62.10
54666;BME280;40566;50.006;36.180;2022-10-16T00:19:32;101135.41;;;3.49;62.10
54666;BME280;40566;50.006;36.180;2022-10-16T00:24:33;101144.78;;;3.49;62.09
54666;BME280;40566;50.006;36.180;2022-10-16T00:29:33;101139.63;;;3.46;62.21
54666;BME280;40566;50.006;36.180;2022-10-16T00:34:34;101137.03;;;3.44;62.14
54666;BME280;40566;50.006;36.180;2022-10-16T00:39:35;101146.34;;;3.42;62.35
54666;BME280;40566;50.006;36.180;2022-10-16T00:44:55;101144.56;;;3.38;62.17
54666;BME280;40566;50.006;36.180;2022-10-16T00:50:07;101147.81;;;3.32;62.39
54666;BME280;40566;50.006;36.180;2022-10-16T00:55:09;101158.06;;;3.32;62.45
54666;BME280;40566;50.006;36.180;2022-10-16T01:00:12;101157.16;;;3.30;62.56
54666;BME280;40566;50.006;36.180;2022-10-16T01:05:13;101153.66;;;3.27;62.41
54666;BME280;40566;50.006;36.180;2022-10-16T01:10:27;101154.44;;;3.24;62.29
54666;BME280;40566;50.006;36.180;2022-10-16T01:21:01;101162.97;;;3.25;62.57
54666;BME280;40566;50.006;36.180;2022-10-16T01:31:43;101172.41;;;3.27;62.67
54666;BME280;40566;50.006;36.180;2022-10-16T01:36:56;101168.91;;;3.24;62.82
54666;BME280;40566;50.006;36.180;2022-10-16T01:47:36;101169.66;;;3.20;62.94
54666;BME280;40566;50.006;36.180;2022-10-16T01:52:40;101174.75;;;3.20;62.96
54666;BME280;40566;50.006;36.180;2022-10-16T01:57:45;101183.34;;;3.22;62.85
54666;BME280;40566;50.006;36.180;2022-10-16T02:02:49;101177.16;;;3.13;63.12
54666;BME280;40566;50.006;36.180;2022-10-16T02:07:50;101182.94;;;3.05;63.42
54666;BME280;40566;50.006;36.180;2022-10-16T02:13:06;101179.63;;;3.09;63.30
54666;BME280;40566;50.006;36.180;2022-10-16T02:18:09;101183.13;;;3.12;63.09
54666;BME280;40566;50.006;36.180;2022-10-16T02:23:18;101171.91;;;3.07;63.20
54666;BME280;40566;50.006;36.180;2022-10-16T02:28:24;101182.13;;;3.07;63.30
54666;BME280;40566;50.006;36.180;2022-10-16T02:33:27;101189.75;;;3.06;63.16
54666;BME280;40566;50.006;36.180;2022-10-16T02:38:29;101184.38;;;2.95;63.60
54666;BME280;40566;50.006;36.180;2022-10-16T02:43:30;101193.81;;;2.97;63.72
54666;BME280;40566;50.006;36.180;2022-10-16T02:48:31;101186.13;;;2.97;63.43
54666;BME280;40566;50.006;36.180;2022-10-16T02:53:31;101187.72;;;2.94;63.60
54666;BME280;40566;50.006;36.180;2022-10-16T02:58:32;101185.03;;;2.88;63.72
54666;BME280;40566;50.006;36.180;2022-10-16T03:03:33;101194.44;;;2.89;63.71
54666;BME280;40566;50.006;36.180;2022-10-16T03:08:33;101202.84;;;2.85;63.69
54666;BME280;40566;50.006;36.180;2022-10-16T03:13:34;101202.84;;;2.85;63.59
54666;BME280;40566;50.006;36.180;2022-10-16T03:18:34;101205.34;;;2.83;63.76
54666;BME280;40566;50.006;36.180;2022-10-16T03:23:35;101216.44;;;2.84;63.64
54666;BME280;40566;50.006;36.180;2022-10-16T03:28:36;101205.34;;;2.83;63.83
54666;BME280;40566;50.006;36.180;2022-10-16T03:33:36;101209.44;;;2.76;63.90
54666;BME280;40566;50.006;36.180;2022-10-16T03:38:37;101211.94;;;2.75;64.18
54666;BME280;40566;50.006;36.180;2022-10-16T03:43:37;101217.22;;;2.81;63.94
54666;BME280;40566;50.006;36.180;2022-10-16T03:48:38;101225.75;;;2.82;63.94
54666;BME280;40566;50.006;36.180;2022-10-16T03:53:40;101226.69;;;2.85;63.97
54666;BME280;40566;50.006;36.180;2022-10-16T03:58:41;101237.00;;;2.88;63.63
54666;BME280;40566;50.006;36.180;2022-10-16T04:03:41;101234.41;;;2.87;63.69
54666;BME280;40566;50.006;36.180;2022-10-16T04:08:43;101231.66;;;2.79;63.89
54666;BME280;40566;50.006;36.180;2022-10-16T04:13:44;101240.84;;;2.74;64.20
54666;BME280;40566;50.006;36.180;2022-10-16T04:18:44;101249.53;;;2.79;64.22
54666;BME280;40566;50.006;36.180;2022-10-16T04:23:45;101254.63;;;2.79;64.03
54666;BME280;40566;50.006;36.180;2022-10-16T04:28:45;101255.44;;;2.78;64.15
54666;BME280;40566;50.006;36.180;2022-10-16T04:33:46;101271.06;;;2.87;64.12
54666;BME280;40566;50.006;36.180;2022-10-16T04:38:47;101277.25;;;2.95;63.88
54666;BME280;40566;50.006;36.180;2022-10-16T04:43:47;101274.78;;;3.00;63.92
54666;BME280;40566;50.006;36.180;2022-10-16T04:48:48;101275.91;;;3.10;63.84
54666;BME280;40566;50.006;36.180;2022-10-16T04:53:48;101277.78;;;3.15;63.75
54666;BME280;40566;50.006;36.180;2022-10-16T04:58:49;101276.13;;;3.17;63.79
54666;BME280;40566;50.006;36.180;2022-10-16T05:03:50;101280.50;;;3.22;64.00
54666;BME280;40566;50.006;36.180;2022-10-16T05:08:51;101293.38;;;3.25;64.22
54666;BME280;40566;50.006;36.180;2022-10-16T05:13:51;101290.94;;;3.29;64.30
54666;BME280;40566;50.006;36.180;2022-10-16T05:18:52;101302.44;;;3.45;63.91
54666;BME280;40566;50.006;36.180;2022-10-16T05:23:53;101306.03;;;3.52;63.74
54666;BME280;40566;50.006;36.180;2022-10-16T05:28:55;101314.69;;;3.57;63.85
54666;BME280;40566;50.006;36.180;2022-10-16T05:33:59;101317.38;;;3.62;63.92
54666;BME280;40566;50.006;36.180;2022-10-16T05:39:00;101321.00;;;3.70;63.88
54666;BME280;40566;50.006;36.180;2022-10-16T05:44:04;101326.34;;;3.79;63.80
54666;BME280;40566;50.006;36.180;2022-10-16T05:49:04;101337.69;;;3.89;63.68
54666;BME280;40566;50.006;36.180;2022-10-16T05:54:05;101343.13;;;4.03;63.53
54666;BME280;40566;50.006;36.180;2022-10-16T05:59:06;101349.34;;;4.12;63.43
54666;BME280;40566;50.006;36.180;2022-10-16T06:04:07;101355.50;;;4.19;63.67
54666;BME280;40566;50.006;36.180;2022-10-16T06:09:09;101356.56;;;4.27;63.69
54666;BME280;40566;50.006;36.180;2022-10-16T06:14:10;101362.16;;;4.47;63.52
54666;BME280;40566;50.006;36.180;2022-10-16T06:19:10;101368.28;;;4.54;63.57
54666;BME280;40566;50.006;36.180;2022-10-16T06:24:11;101367.72;;;4.67;63.55
54666;BME280;40566;50.006;36.180;2022-10-16T06:29:11;101373.19;;;4.83;63.47
54666;BME280;40566;50.006;36.180;2022-10-16T06:34:12;101364.06;;;4.94;63.45
54666;BME280;40566;50.006;36.180;2022-10-16T06:39:12;101368.56;;;5.06;63.35
54666;BME280;40566;50.006;36.180;2022-10-16T06:44:13;101363.66;;;5.16;63.58
54666;BME280;40566;50.006;36.180;2022-10-16T06:49:14;101367.47;;;5.37;63.39
54666;BME280;40566;50.006;36.180;2022-10-16T06:54:21;101366.84;;;5.49;63.42
54666;BME280;40566;50.006;36.180;2022-10-16T06:59:22;101370.44;;;5.59;63.48
54666;BME280;40566;50.006;36.180;2022-10-16T07:04:22;101379.50;;;5.85;63.02
54666;BME280;40566;50.006;36.180;2022-10-16T07:09:23;101383.28;;;6.03;63.11
54666;BME280;40566;50.006;36.180;2022-10-16T07:14:25;101382.63;;;6.16;62.73
54666;BME280;40566;50.006;36.180;2022-10-16T07:19:25;101390.63;;;6.33;62.89
54666;BME280;40566;50.006;36.180;2022-10-16T07:24:26;101399.50;;;6.52;62.79
54666;BME280;40566;50.006;36.180;2022-10-16T07:29:27;101391.03;;;6.59;62.72
54666;BME280;40566;50.006;36.180;2022-10-16T07:34:27;101394.75;;;6.78;62.63
54666;BME280;40566;50.006;36.180;2022-10-16T07:39:28;101380.44;;;6.99;62.56
54666;BME280;40566;50.006;36.180;2022-10-16T07:44:29;101384.97;;;7.18;62.42
54666;BME280;40566;50.006;36.180;2022-10-16T07:49:29;101384.38;;;7.38;62.23
54666;BME280;40566;50.006;36.180;2022-10-16T07:54:30;101379.41;;;7.53;62.06
54666;BME280;40566;50.006;36.180;2022-10-16T07:59:30;101380.47;;;7.75;61.79
54666;BME280;40566;50.006;36.180;2022-10-16T08:04:32;101374.66;;;7.94;61.61
54666;BME280;40566;50.006;36.180;2022-10-16T08:09:33;101371.38;;;8.11;61.25
54666;BME280;40566;50.006;36.180;2022-10-16T08:14:33;101375.88;;;8.33;61.16
54666;BME280;40566;50.006;36.180;2022-10-16T08:19:34;101378.66;;;8.60;60.79
54666;BME280;40566;50.006;36.180;2022-10-16T08:24:34;101371.09;;;8.89;60.47
54666;BME280;40566;50.006;36.180;2022-10-16T08:29:40;101366.09;;;9.23;59.94
54666;BME280;40566;50.006;36.180;2022-10-16T08:34:40;101370.47;;;9.51;59.52
54666;BME280;40566;50.006;36.180;2022-10-16T08:39:41;101376.59;;;9.80;59.23
54666;BME280;40566;50.006;36.180;2022-10-16T08:50:13;101358.75;;;15.11;45.78
54666;BME280;40566;50.006;36.180;2022-10-16T09:00:40;101367.75;;;13.34;50.99
54666;BME280;40566;50.006;36.180;2022-10-16T09:11:53;101361.91;;;12.33;53.24
54666;BME280;40566;50.006;36.180;2022-10-16T09:17:01;101357.50;;;12.41;53.44
54666;BME280;40566;50.006;36.180;2022-10-16T09:22:15;101354.91;;;13.20;51.21
54666;BME280;40566;50.006;36.180;2022-10-16T09:27:16;101356.88;;;13.01;51.11
54666;BME280;40566;50.006;36.180;2022-10-16T09:32:20;101360.34;;;12.14;53.08
54666;BME280;40566;50.006;36.180;2022-10-16T09:37:22;101349.44;;;17.13;42.05
54666;BME280;40566;50.006;36.180;2022-10-16T09:42:31;101342.38;;;19.69;37.37
54666;BME280;40566;50.006;36.180;2022-10-16T09:47:37;101351.09;;;20.55;36.38
54666;BME280;40566;50.006;36.180;2022-10-16T09:52:40;101354.97;;;17.90;42.72
54666;BME280;40566;50.006;36.180;2022-10-16T09:57:51;101345.16;;;15.38;47.04
54666;BME280;40566;50.006;36.180;2022-10-16T10:02:53;101339.56;;;16.60;43.74
54666;BME280;40566;50.006;36.180;2022-10-16T10:07:58;101348.66;;;15.76;44.77
54666;BME280;40566;50.006;36.180;2022-10-16T10:13:00;101340.13;;;15.29;46.14
54666;BME280;40566;50.006;36.180;2022-10-16T10:18:01;101343.66;;;15.26;45.58
54666;BME280;40566;50.006;36.180;2022-10-16T10:23:26;101339.59;;;14.20;48.01
54666;BME280;40566;50.006;36.180;2022-10-16T10:34:26;101317.75;;;20.95;36.83
54666;BME280;40566;50.006;36.180;2022-10-16T10:39:34;101316.50;;;26.16;28.81
54666;BME280;40566;50.006;36.180;2022-10-16T10:50:22;101315.44;;;19.64;39.16
54666;BME280;40566;50.006;36.180;2022-10-16T10:55:53;101307.78;;;18.92;40.27
54666;BME280;40566;50.006;36.180;2022-10-16T11:01:06;101317.09;;;18.00;40.73
54666;BME280;40566;50.006;36.180;2022-10-16T11:06:16;101307.38;;;15.92;43.76
54666;BME280;40566;50.006;36.180;2022-10-16T11:27:27;101308.81;;;13.35;46.56
54666;BME280;40566;50.006;36.180;2022-10-16T11:37:52;101293.72;;;12.96;46.79
54666;BME280;40566;50.006;36.180;2022-10-16T11:48:48;101288.94;;;12.62;46.97
54666;BME280;40566;50.006;36.180;2022-10-16T11:59:54;101275.28;;;12.45;47.30
54666;BME280;40566;50.006;36.180;2022-10-16T12:05:10;101273.59;;;12.41;47.13
54666;BME280;40566;50.006;36.180;2022-10-16T12:10:25;101280.56;;;12.34;47.20
54666;BME280;40566;50.006;36.180;2022-10-16T12:15:32;101284.13;;;12.28;47.46
54666;BME280;40566;50.006;36.180;2022-10-16T12:20:33;101276.41;;;12.19;47.65
54666;BME280;40566;50.006;36.180;2022-10-16T12:25:38;101270.41;;;12.16;47.59
54666;BME280;40566;50.006;36.180;2022-10-16T12:30:54;101273.91;;;12.10;47.51
54666;BME280;40566;50.006;36.180;2022-10-16T12:35:58;101283.44;;;12.06;47.81
54666;BME280;40566;50.006;36.180;2022-10-16T12:41:03;101274.88;;;12.00;47.88
54666;BME280;40566;50.006;36.180;2022-10-16T13:07:33;101288.06;;;11.69;48.94
54666;BME280;40566;50.006;36.180;2022-10-16T13:18:21;101307.22;;;11.49;49.58
54666;BME280;40566;50.006;36.180;2022-10-16T13:23:31;101302.91;;;11.45;49.44
54666;BME280;40566;50.006;36.180;2022-10-16T13:28:35;101303.81;;;11.40;49.68
54666;BME280;40566;50.006;36.180;2022-10-16T13:33:41;101302.16;;;11.26;49.99
54666;BME280;40566;50.006;36.180;2022-10-16T13:38:42;101316.00;;;11.19;50.20
54666;BME280;40566;50.006;36.180;2022-10-16T13:43:46;101311.75;;;11.12;50.20
54666;BME280;40566;50.006;36.180;2022-10-16T13:49:04;101300.56;;;11.02;50.40
54666;BME280;40566;50.006;36.180;2022-10-16T13:54:16;101307.50;;;10.94;50.39
54666;BME280;40566;50.006;36.180;2022-10-16T13:59:32;101298.91;;;10.84;50.98
54666;BME280;40566;50.006;36.180;2022-10-16T14:04:38;101308.44;;;10.75;51.05
54666;BME280;40566;50.006;36.180;2022-10-16T14:09:40;101318.81;;;10.67;52.22
54666;BME280;40566;50.006;36.180;2022-10-16T14:14:44;101324.88;;;10.55;52.33
54666;BME280;40566;50.006;36.180;2022-10-16T14:19:51;101324.03;;;10.45;52.23
54666;BME280;40566;50.006;36.180;2022-10-16T14:24:53;101352.50;;;10.33;52.37
54666;BME280;40566;50.006;36.180;2022-10-16T14:30:16;101341.25;;;10.19;52.72
54666;BME280;40566;50.006;36.180;2022-10-16T14:35:28;101342.13;;;10.04;53.43
54666;BME280;40566;50.006;36.180;2022-10-16T14:40:32;101336.94;;;9.87;53.90
54666;BME280;40566;50.006;36.180;2022-10-16T14:45:34;101340.38;;;9.72;54.61
54666;BME280;40566;50.006;36.180;2022-10-16T14:50:35;101350.69;;;9.55;54.92
54666;BME280;40566;50.006;36.180;2022-10-16T14:55:37;101350.63;;;9.40;55.34
54666;BME280;40566;50.006;36.180;2022-10-16T15:00:37;101367.84;;;9.28;55.83
54666;BME280;40566;50.006;36.180;2022-10-16T15:05:38;101366.03;;;9.18;55.84
54666;BME280;40566;50.006;36.180;2022-10-16T15:10:41;101354.84;;;9.08;56.38
54666;BME280;40566;50.006;36.180;2022-10-16T15:15:45;101371.13;;;8.97;56.71
54666;BME280;40566;50.006;36.180;2022-10-16T15:20:48;101383.97;;;8.86;57.13
54666;BME280;40566;50.006;36.180;2022-10-16T15:25:52;101388.22;;;8.76;57.36
54666;BME280;40566;50.006;36.180;2022-10-16T15:30:54;101377.84;;;8.65;57.56
54666;BME280;40566;50.006;36.180;2022-10-16T15:35:55;101394.06;;;8.52;57.66
54666;BME280;40566;50.006;36.180;2022-10-16T15:40:56;101383.75;;;8.50;57.70
54666;BME280;40566;50.006;36.180;2022-10-16T15:46:03;101375.97;;;8.49;58.16
54666;BME280;40566;50.006;36.180;2022-10-16T15:51:07;101367.31;;;8.41;58.04
54666;BME280;40566;50.006;36.180;2022-10-16T15:56:10;101361.34;;;8.42;58.13
54666;BME280;40566;50.006;36.180;2022-10-16T16:01:11;101372.44;;;8.36;58.30
54666;BME280;40566;50.006;36.180;2022-10-16T16:06:13;101369.78;;;8.24;58.33
54666;BME280;40566;50.006;36.180;2022-10-16T16:11:15;101361.97;;;8.19;58.27
54666;BME280;40566;50.006;36.180;2022-10-16T16:16:17;101360.25;;;8.17;58.42
54666;BME280;40566;50.006;36.180;2022-10-16T16:21:18;101387.75;;;8.16;58.81
54666;BME280;40566;50.006;36.180;2022-10-16T16:26:24;101376.47;;;8.05;59.08
54666;BME280;40566;50.006;36.180;2022-10-16T16:31:28;101388.50;;;8.04;59.17
54666;BME280;40566;50.006;36.180;2022-10-16T16:36:29;101400.38;;;7.91;59.36
54666;BME280;40566;50.006;36.180;2022-10-16T16:41:30;101399.44;;;7.83;59.36
54666;BME280;40566;50.006;36.180;2022-10-16T16:46:31;101404.66;;;7.86;59.62
54666;BME280;40566;50.006;36.180;2022-10-16T16:51:33;101408.84;;;7.77;59.42
54666;BME280;40566;50.006;36.180;2022-10-16T16:56:34;101417.31;;;7.68;59.79
54666;BME280;40566;50.006;36.180;2022-10-16T17:01:34;101424.13;;;7.61;59.85
54666;BME280;40566;50.006;36.180;2022-10-16T17:06:35;101428.31;;;7.53;59.88
54666;BME280;40566;50.006;36.180;2022-10-16T17:11:36;101440.22;;;7.46;59.89
54666;BME280;40566;50.006;36.180;2022-10-16T17:16:39;101452.22;;;7.41;60.10
54666;BME280;40566;50.006;36.180;2022-10-16T17:21:40;101461.63;;;7.39;60.09
54666;BME280;40566;50.006;36.180;2022-10-16T17:26:41;101470.16;;;7.35;60.23
54666;BME280;40566;50.006;36.180;2022-10-16T17:31:48;101450.28;;;7.25;60.23
54666;BME280;40566;50.006;36.180;2022-10-16T17:36:51;101465.75;;;7.28;60.28
54666;BME280;40566;50.006;36.180;2022-10-16T17:41:52;101472.50;;;7.20;60.35
54666;BME280;40566;50.006;36.180;2022-10-16T17:46:54;101487.09;;;7.19;60.37
54666;BME280;40566;50.006;36.180;2022-10-16T17:51:54;101492.09;;;7.10;60.64
54666;BME280;40566;50.006;36.180;2022-10-16T17:56:55;101494.63;;;7.05;60.78
54666;BME280;40566;50.006;36.180;2022-10-16T18:01:56;101490.25;;;7.01;60.81
54666;BME280;40566;50.006;36.180;2022-10-16T18:06:56;101494.53;;;6.99;60.89
54666;BME280;40566;50.006;36.180;2022-10-16T18:11:57;101502.13;;;6.93;60.98
54666;BME280;40566;50.006;36.180;2022-10-16T18:17:00;101499.47;;;6.87;61.11
54666;BME280;40566;50.006;36.180;2022-10-16T18:22:01;101490.81;;;6.82;61.26
54666;BME280;40566;50.006;36.180;2022-10-16T18:27:02;101484.75;;;6.78;61.18
54666;BME280;40566;50.006;36.180;2022-10-16T18:32:02;101498.47;;;6.79;61.63
54666;BME280;40566;50.006;36.180;2022-10-16T18:37:03;101481.16;;;6.68;61.47
54666;BME280;40566;50.006;36.180;2022-10-16T18:42:04;101480.25;;;6.65;61.58
54666;BME280;40566;50.006;36.180;2022-10-16T18:47:04;101469.94;;;6.62;61.71
54666;BME280;40566;50.006;36.180;2022-10-16T18:52:05;101469.94;;;6.62;61.60
54666;BME280;40566;50.006;36.180;2022-10-16T18:57:06;101461.34;;;6.61;61.75
54666;BME280;40566;50.006;36.180;2022-10-16T19:02:08;101451.03;;;6.61;61.77
54666;BME280;40566;50.006;36.180;2022-10-16T19:07:09;101448.34;;;6.53;61.92
54666;BME280;40566;50.006;36.180;2022-10-16T19:12:10;101448.25;;;6.47;62.06
54666;BME280;40566;50.006;36.180;2022-10-16T19:17:11;101452.50;;;6.44;62.19
54666;BME280;40566;50.006;36.180;2022-10-16T19:22:11;101454.16;;;6.42;62.14
54666;BME280;40566;50.006;36.180;2022-10-16T19:27:26;101463.53;;;6.38;62.20
54666;BME280;40566;50.006;36.180;2022-10-16T19:32:27;101462.63;;;6.34;62.04
54666;BME280;40566;50.006;36.180;2022-10-16T19:37:28;101479.84;;;6.40;62.27
54666;BME280;40566;50.006;36.180;2022-10-16T19:42:28;101486.56;;;6.33;62.11
54666;BME280;40566;50.006;36.180;2022-10-16T19:47:30;101489.13;;;6.32;62.33
54666;BME280;40566;50.006;36.180;2022-10-16T19:52:32;101500.16;;;6.28;62.57
54666;BME280;40566;50.006;36.180;2022-10-16T19:57:34;101502.75;;;6.26;62.49
54666;BME280;40566;50.006;36.180;2022-10-16T20:02:35;101503.63;;;6.28;62.52
54666;BME280;40566;50.006;36.180;2022-10-16T20:07:35;101517.25;;;6.24;62.51
54666;BME280;40566;50.006;36.180;2022-10-16T20:12:36;101513.69;;;6.18;62.67
54666;BME280;40566;50.006;36.180;2022-10-16T20:17:37;101519.63;;;6.13;62.73
54666;BME280;40566;50.006;36.180;2022-10-16T20:22:39;101518.69;;;6.10;62.75
54666;BME280;40566;50.006;36.180;2022-10-16T20:27:40;101512.69;;;6.09;62.77
54666;BME280;40566;50.006;36.180;2022-10-16T20:32:40;101513.44;;;6.04;62.89
54666;BME280;40566;50.006;36.180;2022-10-16T20:37:41;101520.25;;;6.02;62.87
54666;BME280;40566;50.006;36.180;2022-10-16T20:42:44;101521.88;;;5.97;62.81
54666;BME280;40566;50.006;36.180;2022-10-16T20:47:44;101509.78;;;5.92;62.96
54666;BME280;40566;50.006;36.180;2022-10-16T20:52:45;101510.63;;;5.93;62.79
54666;BME280;40566;50.006;36.180;2022-10-16T20:57:45;101498.56;;;5.89;62.85
54666;BME280;40566;50.006;36.180;2022-10-16T21:02:50;101498.53;;;5.87;62.80
54666;BME280;40566;50.006;36.180;2022-10-16T21:07:51;101506.16;;;5.84;62.88
54666;BME280;40566;50.006;36.180;2022-10-16T21:12:53;101503.56;;;5.81;62.95
54666;BME280;40566;50.006;36.180;2022-10-16T21:17:56;101504.31;;;5.77;63.10
54666;BME280;40566;50.006;36.180;2022-10-16T21:22:57;101503.31;;;5.70;63.24
54666;BME280;40566;50.006;36.180;2022-10-16T21:27:57;101504.97;;;5.67;63.23
54666;BME280;40566;50.006;36.180;2022-10-16T21:32:58;101512.53;;;5.61;63.04
54666;BME280;40566;50.006;36.180;2022-10-16T21:37:59;101519.50;;;5.65;63.33
54666;BME280;40566;50.006;36.180;2022-10-16T21:43:00;101519.16;;;5.49;63.34
54666;BME280;40566;50.006;36.180;2022-10-16T21:48:00;101521.50;;;5.40;63.56
54666;BME280;40566;50.006;36.180;2022-10-16T21:53:01;101528.22;;;5.35;63.42
54666;BME280;40566;50.006;36.180;2022-10-16T21:58:01;101521.28;;;5.31;63.49
54666;BME280;40566;50.006;36.180;2022-10-16T22:03:02;101527.19;;;5.27;63.21
54666;BME280;40566;50.006;36.180;2022-10-16T22:08:03;101521.19;;;5.26;63.42
54666;BME280;40566;50.006;36.180;2022-10-16T22:13:03;101532.31;;;5.27;63.41
54666;BME280;40566;50.006;36.180;2022-10-16T22:18:04;101534.75;;;5.21;63.41
54666;BME280;40566;50.006;36.180;2022-10-16T22:23:05;101541.59;;;5.20;63.63
54666;BME280;40566;50.006;36.180;2022-10-16T22:28:05;101536.38;;;5.17;63.65
54666;BME280;40566;50.006;36.180;2022-10-16T22:33:06;101547.44;;;5.14;63.64
54666;BME280;40566;50.006;36.180;2022-10-16T22:38:07;101560.22;;;5.13;63.74
54666;BME280;40566;50.006;36.180;2022-10-16T22:43:08;101565.25;;;5.08;63.79
54666;BME280;40566;50.006;36.180;2022-10-16T22:48:08;101574.50;;;5.03;63.86
54666;BME280;40566;50.006;36.180;2022-10-16T22:53:09;101576.03;;;4.95;63.90
54666;BME280;40566;50.006;36.180;2022-10-16T22:58:09;101581.72;;;4.83;64.21
54666;BME280;40566;50.006;36.180;2022-10-16T23:03:10;101575.78;;;4.86;64.12
54666;BME280;40566;50.006;36.180;2022-10-16T23:08:11;101584.25;;;4.82;64.06
54666;BME280;40566;50.006;36.180;2022-10-16T23:13:12;101585.00;;;4.77;63.89
54666;BME280;40566;50.006;36.180;2022-10-16T23:18:13;101584.94;;;4.74;64.05
54666;BME280;40566;50.006;36.180;2022-10-16T23:23:14;101590.81;;;4.70;64.03
54666;BME280;40566;50.006;36.180;2022-10-16T23:28:14;101594.13;;;4.66;64.04
54666;BME280;40566;50.006;36.180;2022-10-16T23:33:15;101595.59;;;4.58;64.04
54666;BME280;40566;50.006;36.180;2022-10-16T23:38:15;101604.13;;;4.57;64.32
54666;BME280;40566;50.006;36.180;2022-10-16T23:43:16;101606.63;;;4.55;64.29
54666;BME280;40566;50.006;36.180;2022-10-16T23:48:17;101603.09;;;4.50;64.23
54666;BME280;40566;50.006;36.180;2022-10-16T23:53:17;101618.38;;;4.47;64.04
54666;BME280;40566;50.006;36.180;2022-10-16T23:58:18;101613.09;;;4.41;64.42
